sensor_id;sensor_type;location;lat;lon;timestamp;pressure;altitude;pressure_sealevel;temperature;humidity
11678;BME280;5895;41.950;24.372;2023-07-20T00:02:16;86978.88;;;20.26;57.37
11678;BME280;5895;41.950;24.372;2023-07-20T00:04:43;86984.88;;;20.32;57.03
11678;BME280;5895;41.950;24.372;2023-07-20T00:07:10;86977.41;;;20.39;56.92
11678;BME280;5895;41.950;24.372;2023-07-20T00:09:37;86968.94;;;20.42;57.12
11678;BME280;5895;41.950;24.372;2023-07-20T00:12:05;86964.72;;;20.46;56.98
11678;BME280;5895;41.950;24.372;2023-07-20T00:14:33;86965.25;;;20.48;57.09
11678;BME280;5895;41.950;24.372;2023-07-20T00:17:00;86946.22;;;20.51;57.23
11678;BME280;5895;41.950;24.372;2023-07-20T00:19:28;86947.78;;;20.52;57.10
11678;BME280;5895;41.950;24.372;2023-07-20T00:21:57;86943.03;;;20.54;57.30
11678;BME280;5895;41.950;24.372;2023-07-20T00:24:24;86928.78;;;20.55;57.16
11678;BME280;5895;41.950;24.372;2023-07-20T00:26:52;86918.25;;;20.55;57.43
11678;BME280;5895;41.950;24.372;2023-07-20T00:29:19;86917.16;;;20.56;57.30
11678;BME280;5895;41.950;24.372;2023-07-20T00:31:46;86919.03;;;20.56;57.09
11678;BME280;5895;41.950;24.372;2023-07-20T00:34:13;86909.25;;;20.56;57.63
11678;BME280;5895;41.950;24.372;2023-07-20T00:36:42;86906.63;;;20.56;57.69
11678;BME280;5895;41.950;24.372;2023-07-20T00:39:09;86888.16;;;20.56;57.71
11678;BME280;5895;41.950;24.372;2023-07-20T00:41:36;86888.16;;;20.56;58.08
11678;BME280;5895;41.950;24.372;2023-07-20T00:44:04;86882.91;;;20.56;57.93
11678;BME280;5895;41.950;24.372;2023-07-20T00:46:31;86880.25;;;20.56;58.20
11678;BME280;5895;41.950;24.372;2023-07-20T00:48:59;86886.59;;;20.55;58.24
11678;BME280;5895;41.950;24.372;2023-07-20T00:51:27;86885.03;;;20.54;58.48
11678;BME280;5895;41.950;24.372;2023-07-20T00:53:56;86890.84;;;20.51;58.86
11678;BME280;5895;41.950;24.372;2023-07-20T00:56:23;86882.47;;;20.49;58.68
11678;BME280;5895;41.950;24.372;2023-07-20T00:58:51;86886.69;;;20.45;58.77
11678;BME280;5895;41.950;24.372;2023-07-20T01:01:19;86877.28;;;20.39;59.01
11678;BME280;5895;41.950;24.372;2023-07-20T01:03:46;86881.75;;;20.39;59.05
11678;BME280;5895;41.950;24.372;2023-07-20T01:06:25;86870.69;;;20.37;62.99
11678;BME280;5895;41.950;24.372;2023-07-20T01:09:01;86873.63;;;20.35;62.52
11678;BME280;5895;41.950;24.372;2023-07-20T01:11:37;86874.69;;;20.34;62.34
11678;BME280;5895;41.950;24.372;2023-07-20T01:14:05;86873.41;;;20.31;59.44
11678;BME280;5895;41.950;24.372;2023-07-20T01:16:33;86872.91;;;20.29;59.60
11678;BME280;5895;41.950;24.372;2023-07-20T01:19:01;86874.25;;;20.27;59.86
11678;BME280;5895;41.950;24.372;2023-07-20T01:21:34;86880.06;;;20.24;62.77
11678;BME280;5895;41.950;24.372;2023-07-20T01:24:31;86871.44;;;20.18;66.06
11678;BME280;5895;41.950;24.372;2023-07-20T01:27:23;86875.94;;;20.18;65.83
11678;BME280;5895;41.950;24.372;2023-07-20T01:30:07;86868.59;;;20.15;64.85
11678;BME280;5895;41.950;24.372;2023-07-20T01:32:38;86870.66;;;20.18;62.48
11678;BME280;5895;41.950;24.372;2023-07-20T01:35:08;86868.81;;;20.18;60.63
11678;BME280;5895;41.950;24.372;2023-07-20T01:37:41;86872.22;;;20.19;60.92
11678;BME280;5895;41.950;24.372;2023-07-20T01:40:10;86868.81;;;20.18;60.58
11678;BME280;5895;41.950;24.372;2023-07-20T01:42:37;86870.66;;;20.18;60.55
11678;BME280;5895;41.950;24.372;2023-07-20T01:45:05;86865.16;;;20.14;60.65
11678;BME280;5895;41.950;24.372;2023-07-20T01:47:32;86862.31;;;20.11;60.80
11678;BME280;5895;41.950;24.372;2023-07-20T01:50:01;86859.69;;;20.11;61.20
11678;BME280;5895;41.950;24.372;2023-07-20T01:52:28;86856.53;;;20.08;60.91
11678;BME280;5895;41.950;24.372;2023-07-20T01:54:55;86856.53;;;20.08;61.23
11678;BME280;5895;41.950;24.372;2023-07-20T01:57:22;86858.66;;;20.06;61.03
11678;BME280;5895;41.950;24.372;2023-07-20T01:59:49;86851.81;;;20.05;61.64
11678;BME280;5895;41.950;24.372;2023-07-20T02:02:16;86846.66;;;19.95;61.62
11678;BME280;5895;41.950;24.372;2023-07-20T02:04:44;86853.06;;;19.89;61.52
11678;BME280;5895;41.950;24.372;2023-07-20T02:07:12;86848.28;;;19.91;62.28
11678;BME280;5895;41.950;24.372;2023-07-20T02:09:39;86847.50;;;19.91;61.88
11678;BME280;5895;41.950;24.372;2023-07-20T02:12:07;86846.22;;;19.88;61.97
11678;BME280;5895;41.950;24.372;2023-07-20T02:14:34;86844.66;;;19.87;62.10
11678;BME280;5895;41.950;24.372;2023-07-20T02:17:02;86848.31;;;19.86;62.30
11678;BME280;5895;41.950;24.372;2023-07-20T02:19:30;86851.25;;;19.85;62.53
11678;BME280;5895;41.950;24.372;2023-07-20T02:21:57;86846.28;;;19.83;62.18
11678;BME280;5895;41.950;24.372;2023-07-20T02:24:26;86852.31;;;19.84;61.93
11678;BME280;5895;41.950;24.372;2023-07-20T02:26:53;86852.03;;;19.85;62.02
11678;BME280;5895;41.950;24.372;2023-07-20T02:29:20;86848.31;;;19.86;61.80
11678;BME280;5895;41.950;24.372;2023-07-20T02:31:47;86850.47;;;19.84;62.21
11678;BME280;5895;41.950;24.372;2023-07-20T02:34:14;86853.59;;;19.86;62.38
11678;BME280;5895;41.950;24.372;2023-07-20T02:36:41;86843.63;;;19.83;62.48
11678;BME280;5895;41.950;24.372;2023-07-20T02:39:09;86837.13;;;19.75;62.60
11678;BME280;5895;41.950;24.372;2023-07-20T02:41:37;86841.94;;;19.68;63.51
11678;BME280;5895;41.950;24.372;2023-07-20T02:44:04;86843.81;;;19.63;62.77
11678;BME280;5895;41.950;24.372;2023-07-20T02:46:31;86853.88;;;19.55;63.15
11678;BME280;5895;41.950;24.372;2023-07-20T02:49:00;86852.88;;;19.46;63.65
11678;BME280;5895;41.950;24.372;2023-07-20T02:51:27;86851.94;;;19.37;63.43
11678;BME280;5895;41.950;24.372;2023-07-20T02:53:54;86850.13;;;19.33;63.59
11678;BME280;5895;41.950;24.372;2023-07-20T02:56:21;86841.97;;;19.29;64.05
11678;BME280;5895;41.950;24.372;2023-07-20T02:58:50;86852.03;;;19.22;65.18
11678;BME280;5895;41.950;24.372;2023-07-20T03:01:17;86851.28;;;19.16;64.05
11678;BME280;5895;41.950;24.372;2023-07-20T03:03:45;86855.28;;;19.14;64.38
11678;BME280;5895;41.950;24.372;2023-07-20T03:06:12;86855.03;;;19.10;64.96
11678;BME280;5895;41.950;24.372;2023-07-20T03:08:40;86865.31;;;19.07;64.48
11678;BME280;5895;41.950;24.372;2023-07-20T03:11:13;86856.41;;;19.02;64.79
11678;BME280;5895;41.950;24.372;2023-07-20T03:26:19;86855.88;;;19.35;68.12
11678;BME280;5895;41.950;24.372;2023-07-20T03:28:46;86853.56;;;19.28;66.81
11678;BME280;5895;41.950;24.372;2023-07-20T03:31:14;86849.91;;;19.24;66.44
11678;BME280;5895;41.950;24.372;2023-07-20T03:33:41;86835.75;;;19.20;66.16
11678;BME280;5895;41.950;24.372;2023-07-20T03:36:09;86837.31;;;19.21;66.01
11678;BME280;5895;41.950;24.372;2023-07-20T03:38:37;86837.88;;;19.18;65.78
11678;BME280;5895;41.950;24.372;2023-07-20T03:41:04;86840.50;;;19.18;66.14
11678;BME280;5895;41.950;24.372;2023-07-20T03:43:33;86841.56;;;19.17;66.40
11678;BME280;5895;41.950;24.372;2023-07-20T03:46:00;86838.44;;;19.15;65.87
11678;BME280;5895;41.950;24.372;2023-07-20T03:48:33;86835.84;;;19.10;66.02
11678;BME280;5895;41.950;24.372;2023-07-20T03:51:00;86838.75;;;19.08;65.63
11678;BME280;5895;41.950;24.372;2023-07-20T03:53:28;86846.66;;;19.03;66.29
11678;BME280;5895;41.950;24.372;2023-07-20T03:55:55;86834.84;;;19.00;65.53
11678;BME280;5895;41.950;24.372;2023-07-20T03:58:23;86850.66;;;18.95;66.03
11678;BME280;5895;41.950;24.372;2023-07-20T04:00:52;86860.69;;;18.88;66.95
11678;BME280;5895;41.950;24.372;2023-07-20T04:03:20;86846.00;;;18.87;66.32
11678;BME280;5895;41.950;24.372;2023-07-20T04:05:48;86845.47;;;18.85;66.00
11678;BME280;5895;41.950;24.372;2023-07-20T04:08:16;86847.31;;;18.85;66.79
11678;BME280;5895;41.950;24.372;2023-07-20T04:10:44;86850.19;;;18.88;66.77
11678;BME280;5895;41.950;24.372;2023-07-20T04:13:12;86844.94;;;18.88;66.57
11678;BME280;5895;41.950;24.372;2023-07-20T04:15:39;86850.72;;;18.85;66.92
11678;BME280;5895;41.950;24.372;2023-07-20T04:18:08;86841.00;;;18.86;67.39
11678;BME280;5895;41.950;24.372;2023-07-20T04:20:36;86847.31;;;18.85;67.17
11678;BME280;5895;41.950;24.372;2023-07-20T04:23:03;86834.47;;;18.78;66.93
11678;BME280;5895;41.950;24.372;2023-07-20T04:25:30;86847.59;;;18.83;67.87
11678;BME280;5895;41.950;24.372;2023-07-20T04:27:59;86848.16;;;18.80;67.25
11678;BME280;5895;41.950;24.372;2023-07-20T04:30:26;86847.63;;;18.78;67.73
11678;BME280;5895;41.950;24.372;2023-07-20T04:32:54;86856.56;;;18.77;67.64
11678;BME280;5895;41.950;24.372;2023-07-20T04:35:47;86859.19;;;18.77;74.96
11678;BME280;5895;41.950;24.372;2023-07-20T04:38:14;86851.81;;;18.79;67.87
11678;BME280;5895;41.950;24.372;2023-07-20T04:40:44;86860.22;;;18.81;68.52
11678;BME280;5895;41.950;24.372;2023-07-20T04:43:11;86853.88;;;18.87;67.94
11678;BME280;5895;41.950;24.372;2023-07-20T04:45:39;86849.66;;;18.91;68.28
11678;BME280;5895;41.950;24.372;2023-07-20T04:48:09;86855.91;;;18.95;69.30
11678;BME280;5895;41.950;24.372;2023-07-20T04:50:37;86847.22;;;19.00;67.98
11678;BME280;5895;41.950;24.372;2023-07-20T04:53:06;86850.31;;;19.07;69.34
11678;BME280;5895;41.950;24.372;2023-07-20T04:55:33;86855.78;;;19.16;67.81
11678;BME280;5895;41.950;24.372;2023-07-20T04:58:02;86848.88;;;19.25;67.57
11678;BME280;5895;41.950;24.372;2023-07-20T05:00:30;86848.00;;;19.35;67.35
11678;BME280;5895;41.950;24.372;2023-07-20T05:02:57;86848.19;;;19.43;67.35
11678;BME280;5895;41.950;24.372;2023-07-20T05:05:25;86852.31;;;19.54;67.41
11678;BME280;5895;41.950;24.372;2023-07-20T05:07:52;86841.72;;;19.65;67.71
11678;BME280;5895;41.950;24.372;2023-07-20T05:10:21;86843.19;;;19.76;68.58
11678;BME280;5895;41.950;24.372;2023-07-20T05:12:49;86843.63;;;19.83;67.08
11678;BME280;5895;41.950;24.372;2023-07-20T05:15:16;86842.75;;;19.93;66.61
11678;BME280;5895;41.950;24.372;2023-07-20T05:17:44;86838.16;;;20.03;66.27
11678;BME280;5895;41.950;24.372;2023-07-20T05:20:12;86838.56;;;20.16;66.58
11678;BME280;5895;41.950;24.372;2023-07-20T05:22:39;86845.75;;;20.29;65.86
11678;BME280;5895;41.950;24.372;2023-07-20T05:25:08;86843.00;;;20.39;65.13
11678;BME280;5895;41.950;24.372;2023-07-20T05:27:37;86839.16;;;20.55;65.60
11678;BME280;5895;41.950;24.372;2023-07-20T05:30:05;86833.16;;;20.69;65.04
11678;BME280;5895;41.950;24.372;2023-07-20T05:32:33;86839.59;;;20.81;64.94
11678;BME280;5895;41.950;24.372;2023-07-20T05:35:01;86833.38;;;20.91;64.68
11678;BME280;5895;41.950;24.372;2023-07-20T05:37:28;86830.84;;;21.05;63.83
11678;BME280;5895;41.950;24.372;2023-07-20T05:39:56;86832.25;;;21.16;63.43
11678;BME280;5895;41.950;24.372;2023-07-20T05:42:23;86826.53;;;21.28;62.57
11678;BME280;5895;41.950;24.372;2023-07-20T05:44:52;86827.38;;;21.42;62.60
11678;BME280;5895;41.950;24.372;2023-07-20T05:47:24;86824.56;;;21.52;62.70
11678;BME280;5895;41.950;24.372;2023-07-20T05:49:51;86819.91;;;21.63;61.47
11678;BME280;5895;41.950;24.372;2023-07-20T05:52:18;86812.09;;;21.72;61.26
11678;BME280;5895;41.950;24.372;2023-07-20T05:54:45;86810.34;;;21.81;60.92
11678;BME280;5895;41.950;24.372;2023-07-20T05:57:13;86813.91;;;21.90;60.77
11678;BME280;5895;41.950;24.372;2023-07-20T05:59:40;86817.41;;;21.99;60.43
11678;BME280;5895;41.950;24.372;2023-07-20T06:02:11;86815.66;;;22.08;61.11
11678;BME280;5895;41.950;24.372;2023-07-20T06:04:39;86809.25;;;22.14;60.48
11678;BME280;5895;41.950;24.372;2023-07-20T06:07:06;86806.50;;;22.20;60.00
11678;BME280;5895;41.950;24.372;2023-07-20T06:09:34;86812.16;;;22.27;60.42
11678;BME280;5895;41.950;24.372;2023-07-20T06:12:02;86805.13;;;22.36;60.34
11678;BME280;5895;41.950;24.372;2023-07-20T06:14:30;86803.38;;;22.45;60.39
11678;BME280;5895;41.950;24.372;2023-07-20T06:16:58;86810.81;;;22.57;59.99
11678;BME280;5895;41.950;24.372;2023-07-20T06:19:27;86813.41;;;22.70;59.65
11678;BME280;5895;41.950;24.372;2023-07-20T06:21:54;86813.69;;;22.83;59.83
11678;BME280;5895;41.950;24.372;2023-07-20T06:24:22;86812.72;;;22.92;59.56
11678;BME280;5895;41.950;24.372;2023-07-20T06:26:49;86811.09;;;23.05;59.13
11678;BME280;5895;41.950;24.372;2023-07-20T06:29:16;86805.59;;;23.15;59.29
11678;BME280;5895;41.950;24.372;2023-07-20T06:31:45;86816.75;;;23.26;59.35
11678;BME280;5895;41.950;24.372;2023-07-20T06:34:12;86799.66;;;23.32;58.65
11678;BME280;5895;41.950;24.372;2023-07-20T06:36:41;86799.59;;;23.46;60.27
11678;BME280;5895;41.950;24.372;2023-07-20T06:39:08;86808.06;;;23.57;59.02
11678;BME280;5895;41.950;24.372;2023-07-20T06:41:36;86795.38;;;23.67;58.15
11678;BME280;5895;41.950;24.372;2023-07-20T06:44:03;86798.56;;;23.78;58.16
11678;BME280;5895;41.950;24.372;2023-07-20T06:46:31;86799.22;;;23.84;57.42
11678;BME280;5895;41.950;24.372;2023-07-20T06:48:58;86791.94;;;23.89;56.29
11678;BME280;5895;41.950;24.372;2023-07-20T06:51:26;86796.78;;;23.96;56.44
11678;BME280;5895;41.950;24.372;2023-07-20T06:53:55;86795.75;;;24.06;56.76
11678;BME280;5895;41.950;24.372;2023-07-20T06:56:22;86798.47;;;24.14;56.29
11678;BME280;5895;41.950;24.372;2023-07-20T06:58:50;86803.50;;;24.24;56.26
11678;BME280;5895;41.950;24.372;2023-07-20T07:01:17;86797.56;;;24.27;55.64
11678;BME280;5895;41.950;24.372;2023-07-20T07:03:46;86806.38;;;24.37;55.40
11678;BME280;5895;41.950;24.372;2023-07-20T07:06:14;86802.97;;;24.45;55.43
11678;BME280;5895;41.950;24.372;2023-07-20T07:08:41;86796.44;;;24.51;55.35
11678;BME280;5895;41.950;24.372;2023-07-20T07:11:12;86799.13;;;24.60;55.27
11678;BME280;5895;41.950;24.372;2023-07-20T07:13:39;86801.50;;;24.70;55.43
11678;BME280;5895;41.950;24.372;2023-07-20T07:16:06;86793.06;;;24.76;55.34
11678;BME280;5895;41.950;24.372;2023-07-20T07:18:34;86793.38;;;24.84;55.44
11678;BME280;5895;41.950;24.372;2023-07-20T07:21:01;86795.13;;;24.88;55.00
11678;BME280;5895;41.950;24.372;2023-07-20T07:23:29;86785.59;;;24.96;55.15
11678;BME280;5895;41.950;24.372;2023-07-20T07:25:56;86785.94;;;25.03;55.26
11678;BME280;5895;41.950;24.372;2023-07-20T07:28:25;86787.84;;;25.11;55.40
11678;BME280;5895;41.950;24.372;2023-07-20T07:30:52;86779.25;;;25.14;55.09
11678;BME280;5895;41.950;24.372;2023-07-20T07:33:22;86793.00;;;25.25;54.54
11678;BME280;5895;41.950;24.372;2023-07-20T07:35:50;86787.69;;;25.33;54.49
11678;BME280;5895;41.950;24.372;2023-07-20T07:38:18;86794.41;;;25.40;54.53
11678;BME280;5895;41.950;24.372;2023-07-20T07:40:46;86795.19;;;25.49;54.83
11678;BME280;5895;41.950;24.372;2023-07-20T07:43:13;86791.75;;;25.57;54.54
11678;BME280;5895;41.950;24.372;2023-07-20T07:45:42;86791.25;;;25.64;54.16
11678;BME280;5895;41.950;24.372;2023-07-20T07:48:10;86793.91;;;25.72;54.18
11678;BME280;5895;41.950;24.372;2023-07-20T07:50:38;86795.97;;;25.75;54.04
11678;BME280;5895;41.950;24.372;2023-07-20T07:53:07;86787.22;;;25.83;53.83
11678;BME280;5895;41.950;24.372;2023-07-20T07:55:35;86787.00;;;25.97;53.33
11678;BME280;5895;41.950;24.372;2023-07-20T07:58:03;86789.94;;;26.13;52.74
11678;BME280;5895;41.950;24.372;2023-07-20T08:00:30;86782.75;;;26.22;52.86
11678;BME280;5895;41.950;24.372;2023-07-20T08:02:59;86795.38;;;26.34;52.95
11678;BME280;5895;41.950;24.372;2023-07-20T08:05:27;86789.75;;;26.44;52.96
11678;BME280;5895;41.950;24.372;2023-07-20T08:07:54;86793.91;;;26.54;52.79
11678;BME280;5895;41.950;24.372;2023-07-20T08:10:22;86792.63;;;26.60;52.85
11678;BME280;5895;41.950;24.372;2023-07-20T08:12:49;86792.75;;;26.72;52.46
11678;BME280;5895;41.950;24.372;2023-07-20T08:15:17;86795.03;;;26.82;52.09
11678;BME280;5895;41.950;24.372;2023-07-20T08:17:44;86804.19;;;26.94;51.75
11678;BME280;5895;41.950;24.372;2023-07-20T08:20:14;86802.94;;;27.00;51.70
11678;BME280;5895;41.950;24.372;2023-07-20T08:22:43;86796.31;;;27.06;52.03
11678;BME280;5895;41.950;24.372;2023-07-20T08:25:10;86801.50;;;27.11;51.73
11678;BME280;5895;41.950;24.372;2023-07-20T08:27:38;86802.38;;;27.15;52.38
11678;BME280;5895;41.950;24.372;2023-07-20T08:30:07;86809.75;;;27.18;53.24
11678;BME280;5895;41.950;24.372;2023-07-20T08:32:35;86812.66;;;27.25;52.74
11678;BME280;5895;41.950;24.372;2023-07-20T08:35:03;86800.47;;;27.45;53.62
11678;BME280;5895;41.950;24.372;2023-07-20T08:37:33;86804.38;;;27.68;53.22
11678;BME280;5895;41.950;24.372;2023-07-20T08:40:00;86795.28;;;27.90;52.40
11678;BME280;5895;41.950;24.372;2023-07-20T08:42:30;86806.22;;;28.10;53.26
11678;BME280;5895;41.950;24.372;2023-07-20T08:44:57;86807.03;;;28.23;53.41
11678;BME280;5895;41.950;24.372;2023-07-20T08:47:25;86805.22;;;28.35;52.24
11678;BME280;5895;41.950;24.372;2023-07-20T08:49:54;86796.00;;;28.45;52.83
11678;BME280;5895;41.950;24.372;2023-07-20T08:52:22;86804.63;;;28.63;52.53
11678;BME280;5895;41.950;24.372;2023-07-20T08:54:52;86805.06;;;28.77;52.71
11678;BME280;5895;41.950;24.372;2023-07-20T08:57:21;86807.63;;;28.86;51.47
11678;BME280;5895;41.950;24.372;2023-07-20T08:59:49;86807.78;;;29.02;51.22
11678;BME280;5895;41.950;24.372;2023-07-20T09:02:19;86803.31;;;29.18;51.42
11678;BME280;5895;41.950;24.372;2023-07-20T09:04:49;86793.19;;;29.36;50.64
11678;BME280;5895;41.950;24.372;2023-07-20T09:07:16;86775.31;;;29.52;50.59
11678;BME280;5895;41.950;24.372;2023-07-20T09:09:45;86784.13;;;29.65;50.37
11678;BME280;5895;41.950;24.372;2023-07-20T09:12:15;86783.22;;;29.61;49.94
11678;BME280;5895;41.950;24.372;2023-07-20T09:14:43;86782.78;;;29.59;50.76
11678;BME280;5895;41.950;24.372;2023-07-20T09:17:13;86783.19;;;29.73;50.04
11678;BME280;5895;41.950;24.372;2023-07-20T09:19:46;86791.63;;;29.87;48.06
11678;BME280;5895;41.950;24.372;2023-07-20T09:22:14;86765.19;;;29.98;49.64
11678;BME280;5895;41.950;24.372;2023-07-20T09:24:43;86773.91;;;30.11;49.40
11678;BME280;5895;41.950;24.372;2023-07-20T09:27:11;86767.88;;;30.26;48.56
11678;BME280;5895;41.950;24.372;2023-07-20T09:29:49;86770.47;;;30.38;46.69
11678;BME280;5895;41.950;24.372;2023-07-20T09:32:21;86759.94;;;30.45;47.52
11678;BME280;5895;41.950;24.372;2023-07-20T09:34:50;86775.25;;;30.61;48.65
11678;BME280;5895;41.950;24.372;2023-07-20T09:37:25;86786.34;;;30.75;47.92
11678;BME280;5895;41.950;24.372;2023-07-20T09:39:54;86794.47;;;30.94;47.78
11678;BME280;5895;41.950;24.372;2023-07-20T09:42:22;86788.59;;;31.04;47.68
11678;BME280;5895;41.950;24.372;2023-07-20T09:44:53;86782.28;;;31.13;46.96
11678;BME280;5895;41.950;24.372;2023-07-20T09:47:24;86783.16;;;31.17;46.88
11678;BME280;5895;41.950;24.372;2023-07-20T09:49:58;86787.28;;;31.30;47.03
11678;BME280;5895;41.950;24.372;2023-07-20T09:52:27;86784.50;;;31.42;47.46
11678;BME280;5895;41.950;24.372;2023-07-20T09:54:56;86786.59;;;31.49;47.18
11678;BME280;5895;41.950;24.372;2023-07-20T09:57:26;86783.34;;;31.59;47.18
11678;BME280;5895;41.950;24.372;2023-07-20T09:59:55;86786.13;;;31.63;46.71
11678;BME280;5895;41.950;24.372;2023-07-20T10:02:27;86774.84;;;31.73;46.06
11678;BME280;5895;41.950;24.372;2023-07-20T10:05:02;86764.97;;;31.77;45.88
11678;BME280;5895;41.950;24.372;2023-07-20T10:07:30;86764.50;;;31.91;46.80
11678;BME280;5895;41.950;24.372;2023-07-20T10:10:01;86761.53;;;31.96;45.02
11678;BME280;5895;41.950;24.372;2023-07-20T10:12:32;86762.72;;;31.98;46.07
11678;BME280;5895;41.950;24.372;2023-07-20T10:15:07;86761.19;;;31.97;43.81
11678;BME280;5895;41.950;24.372;2023-07-20T10:17:43;86751.00;;;32.06;45.68
11678;BME280;5895;41.950;24.372;2023-07-20T10:20:16;86747.81;;;32.20;46.42
11678;BME280;5895;41.950;24.372;2023-07-20T10:22:48;86738.50;;;32.33;46.41
11678;BME280;5895;41.950;24.372;2023-07-20T10:25:18;86744.09;;;32.44;46.56
11678;BME280;5895;41.950;24.372;2023-07-20T10:27:45;86747.44;;;32.60;45.56
11678;BME280;5895;41.950;24.372;2023-07-20T10:30:17;86758.38;;;32.71;44.01
11678;BME280;5895;41.950;24.372;2023-07-20T10:32:45;86759.31;;;32.82;45.60
11678;BME280;5895;41.950;24.372;2023-07-20T10:35:14;86762.66;;;32.95;46.07
11678;BME280;5895;41.950;24.372;2023-07-20T10:38:03;86762.94;;;33.13;41.07
11678;BME280;5895;41.950;24.372;2023-07-20T10:40:32;86754.28;;;33.00;45.35
11678;BME280;5895;41.950;24.372;2023-07-20T10:43:02;86758.94;;;33.03;44.28
11678;BME280;5895;41.950;24.372;2023-07-20T10:45:40;86748.34;;;33.14;41.44
11678;BME280;5895;41.950;24.372;2023-07-20T10:48:18;86761.13;;;33.21;40.09
11678;BME280;5895;41.950;24.372;2023-07-20T10:51:10;86751.69;;;33.30;40.79
11678;BME280;5895;41.950;24.372;2023-07-20T10:53:38;86749.47;;;33.36;44.36
11678;BME280;5895;41.950;24.372;2023-07-20T10:56:07;86755.53;;;33.29;43.48
11678;BME280;5895;41.950;24.372;2023-07-20T10:58:35;86740.16;;;33.30;42.99
11678;BME280;5895;41.950;24.372;2023-07-20T11:01:04;86745.22;;;33.35;42.35
11678;BME280;5895;41.950;24.372;2023-07-20T11:03:33;86738.91;;;33.47;43.06
11678;BME280;5895;41.950;24.372;2023-07-20T11:06:31;86745.91;;;33.55;38.58
11678;BME280;5895;41.950;24.372;2023-07-20T11:09:08;86747.53;;;33.59;41.21
11678;BME280;5895;41.950;24.372;2023-07-20T11:11:38;86739.97;;;33.68;42.71
11678;BME280;5895;41.950;24.372;2023-07-20T11:14:07;86747.72;;;33.74;42.07
11678;BME280;5895;41.950;24.372;2023-07-20T11:16:38;86744.97;;;33.70;40.95
11678;BME280;5895;41.950;24.372;2023-07-20T11:19:13;86748.44;;;33.71;42.79
11678;BME280;5895;41.950;24.372;2023-07-20T11:21:42;86727.00;;;33.78;43.19
11678;BME280;5895;41.950;24.372;2023-07-20T11:24:10;86730.53;;;33.82;42.28
11678;BME280;5895;41.950;24.372;2023-07-20T11:26:46;86731.66;;;33.81;37.45
11678;BME280;5895;41.950;24.372;2023-07-20T11:29:17;86721.75;;;33.88;39.85
11678;BME280;5895;41.950;24.372;2023-07-20T11:31:46;86714.78;;;33.84;39.98
11678;BME280;5895;41.950;24.372;2023-07-20T11:34:16;86714.78;;;33.84;38.99
11678;BME280;5895;41.950;24.372;2023-07-20T11:36:46;86724.97;;;33.67;40.50
11678;BME280;5895;41.950;24.372;2023-07-20T11:39:15;86740.91;;;33.53;40.85
11678;BME280;5895;41.950;24.372;2023-07-20T11:41:46;86758.09;;;33.45;40.41
11678;BME280;5895;41.950;24.372;2023-07-20T11:44:15;86756.19;;;33.23;40.15
11678;BME280;5895;41.950;24.372;2023-07-20T11:46:43;86755.75;;;32.75;41.50
11678;BME280;5895;41.950;24.372;2023-07-20T11:49:13;86768.09;;;32.37;41.53
11678;BME280;5895;41.950;24.372;2023-07-20T11:51:40;86749.47;;;32.05;42.48
11678;BME280;5895;41.950;24.372;2023-07-20T11:54:09;86726.47;;;31.69;42.33
11678;BME280;5895;41.950;24.372;2023-07-20T11:56:41;86719.31;;;31.38;40.07
11678;BME280;5895;41.950;24.372;2023-07-20T11:59:09;86715.41;;;31.20;43.07
11678;BME280;5895;41.950;24.372;2023-07-20T12:01:36;86725.06;;;31.05;43.29
11678;BME280;5895;41.950;24.372;2023-07-20T12:04:04;86731.72;;;30.95;43.41
11678;BME280;5895;41.950;24.372;2023-07-20T12:06:34;86732.47;;;31.12;43.11
11678;BME280;5895;41.950;24.372;2023-07-20T12:09:05;86729.97;;;31.54;42.08
11678;BME280;5895;41.950;24.372;2023-07-20T12:11:34;86726.44;;;31.85;43.00
11678;BME280;5895;41.950;24.372;2023-07-20T12:14:02;86711.81;;;32.02;43.26
11678;BME280;5895;41.950;24.372;2023-07-20T12:16:30;86720.28;;;31.84;43.11
11678;BME280;5895;41.950;24.372;2023-07-20T12:19:02;86715.28;;;31.83;40.68
11678;BME280;5895;41.950;24.372;2023-07-20T12:21:30;86710.31;;;32.04;42.92
11678;BME280;5895;41.950;24.372;2023-07-20T12:23:59;86697.16;;;32.19;42.41
11678;BME280;5895;41.950;24.372;2023-07-20T12:26:29;86701.66;;;32.34;42.55
11678;BME280;5895;41.950;24.372;2023-07-20T12:28:57;86695.78;;;32.48;42.35
11678;BME280;5895;41.950;24.372;2023-07-20T12:31:25;86691.31;;;32.55;41.87
11678;BME280;5895;41.950;24.372;2023-07-20T12:33:54;86684.28;;;32.47;42.25
11678;BME280;5895;41.950;24.372;2023-07-20T12:36:22;86680.16;;;32.53;42.75
11678;BME280;5895;41.950;24.372;2023-07-20T12:38:50;86681.75;;;32.58;42.12
11678;BME280;5895;41.950;24.372;2023-07-20T12:41:19;86684.94;;;32.41;41.42
11678;BME280;5895;41.950;24.372;2023-07-20T12:43:47;86673.97;;;32.30;41.93
11678;BME280;5895;41.950;24.372;2023-07-20T12:46:15;86677.06;;;32.32;42.22
11678;BME280;5895;41.950;24.372;2023-07-20T12:48:43;86673.25;;;32.33;42.34
11678;BME280;5895;41.950;24.372;2023-07-20T12:51:11;86675.06;;;32.48;42.56
11678;BME280;5895;41.950;24.372;2023-07-20T12:53:38;86663.81;;;32.62;42.10
11678;BME280;5895;41.950;24.372;2023-07-20T12:56:06;86670.41;;;32.68;41.84
11678;BME280;5895;41.950;24.372;2023-07-20T12:58:35;86664.97;;;32.64;40.92
11678;BME280;5895;41.950;24.372;2023-07-20T13:01:03;86669.84;;;32.55;41.76
11678;BME280;5895;41.950;24.372;2023-07-20T13:03:30;86667.75;;;32.45;41.73
11678;BME280;5895;41.950;24.372;2023-07-20T13:05:59;86663.38;;;32.37;42.30
11678;BME280;5895;41.950;24.372;2023-07-20T13:08:26;86666.84;;;32.18;41.82
11678;BME280;5895;41.950;24.372;2023-07-20T13:10:54;86670.19;;;32.11;42.29
11678;BME280;5895;41.950;24.372;2023-07-20T13:13:21;86670.72;;;32.21;42.65
11678;BME280;5895;41.950;24.372;2023-07-20T13:15:51;86672.22;;;32.18;41.06
11678;BME280;5895;41.950;24.372;2023-07-20T13:18:19;86678.25;;;32.11;42.32
11678;BME280;5895;41.950;24.372;2023-07-20T13:20:47;86682.06;;;32.10;42.62
11678;BME280;5895;41.950;24.372;2023-07-20T13:23:14;86671.25;;;32.07;42.22